sensor_id;sensor_type;location;lat;lon;timestamp;pressure;altitude;pressure_sealevel;temperature;humidity
75166;BME280;63747;48.042;10.088;2023-04-03T00:00:20;95718.88;;;1.34;73.10
75166;BME280;63747;48.042;10.088;2023-04-03T00:03:20;95711.44;;;1.28;72.82
75166;BME280;63747;48.042;10.088;2023-04-03T00:06:22;95714.59;;;1.33;72.97
75166;BME280;63747;48.042;10.088;2023-04-03T00:09:23;95709.59;;;1.30;72.59
75166;BME280;63747;48.042;10.088;2023-04-03T00:12:24;95711.13;;;1.33;72.75
75166;BME280;63747;48.042;10.088;2023-04-03T00:15:25;95711.03;;;1.34;72.62
75166;BME280;63747;48.042;10.088;2023-04-03T00:18:26;95710.31;;;1.32;72.52
75166;BME280;63747;48.042;10.088;2023-04-03T00:21:26;95716.13;;;1.36;72.03
75166;BME280;63747;48.042;10.088;2023-04-03T00:24:27;95715.00;;;1.40;71.94
75166;BME280;63747;48.042;10.088;2023-04-03T00:27:27;95716.66;;;1.41;71.78
75166;BME280;63747;48.042;10.088;2023-04-03T00:30:28;95709.59;;;1.30;71.83
75166;BME280;63747;48.042;10.088;2023-04-03T00:33:29;95719.63;;;1.24;71.62
75166;BME280;63747;48.042;10.088;2023-04-03T00:36:29;95715.63;;;1.31;71.28
75166;BME280;63747;48.042;10.088;2023-04-03T00:39:30;95708.41;;;1.34;71.19
75166;BME280;63747;48.042;10.088;2023-04-03T00:42:31;95714.16;;;1.27;70.87
75166;BME280;63747;48.042;10.088;2023-04-03T00:45:36;95723.16;;;1.23;70.85
75166;BME280;63747;48.042;10.088;2023-04-03T00:48:41;95711.78;;;1.24;70.67
75166;BME280;63747;48.042;10.088;2023-04-03T00:51:42;95708.75;;;1.17;70.52
75166;BME280;63747;48.042;10.088;2023-04-03T00:54:45;95711.25;;;1.19;70.53
75166;BME280;63747;48.042;10.088;2023-04-03T00:57:46;95700.50;;;1.23;70.39
75166;BME280;63747;48.042;10.088;2023-04-03T01:00:52;95700.56;;;1.22;69.83
75166;BME280;63747;48.042;10.088;2023-04-03T01:03:59;95699.13;;;1.18;69.69
75166;BME280;63747;48.042;10.088;2023-04-03T01:07:07;95700.28;;;1.14;69.72
75166;BME280;63747;48.042;10.088;2023-04-03T01:10:11;95697.78;;;1.12;69.46
75166;BME280;63747;48.042;10.088;2023-04-03T01:13:32;95694.44;;;1.10;69.26
75166;BME280;63747;48.042;10.088;2023-04-03T01:16:33;95697.88;;;1.11;68.96
75166;BME280;63747;48.042;10.088;2023-04-03T01:19:34;95702.03;;;1.13;68.96
75166;BME280;63747;48.042;10.088;2023-04-03T01:26:11;95692.84;;;1.08;68.00
75166;BME280;63747;48.042;10.088;2023-04-03T01:29:12;95676.97;;;0.98;68.20
75166;BME280;63747;48.042;10.088;2023-04-03T01:32:13;95685.84;;;0.95;67.86
75166;BME280;63747;48.042;10.088;2023-04-03T01:35:13;95694.09;;;0.89;67.51
75166;BME280;63747;48.042;10.088;2023-04-03T01:38:14;95688.13;;;0.87;67.58
75166;BME280;63747;48.042;10.088;2023-04-03T01:41:16;95695.78;;;0.90;67.60
75166;BME280;63747;48.042;10.088;2023-04-03T01:44:16;95696.78;;;0.88;67.38
75166;BME280;63747;48.042;10.088;2023-04-03T01:47:17;95699.00;;;0.94;67.21
75166;BME280;63747;48.042;10.088;2023-04-03T01:50:18;95690.44;;;0.92;66.90
75166;BME280;63747;48.042;10.088;2023-04-03T01:53:18;95695.66;;;0.92;66.85
75166;BME280;63747;48.042;10.088;2023-04-03T01:56:19;95689.59;;;0.91;66.74
75166;BME280;63747;48.042;10.088;2023-04-03T01:59:20;95700.66;;;0.95;66.84
75166;BME280;63747;48.042;10.088;2023-04-03T02:02:20;95704.97;;;0.96;66.81
75166;BME280;63747;48.042;10.088;2023-04-03T02:05:21;95699.94;;;0.93;66.65
75166;BME280;63747;48.042;10.088;2023-04-03T02:08:22;95696.38;;;0.94;67.00
75166;BME280;63747;48.042;10.088;2023-04-03T02:11:23;95701.28;;;0.86;66.86
75166;BME280;63747;48.042;10.088;2023-04-03T02:14:23;95696.34;;;0.68;66.97
75166;BME280;63747;48.042;10.088;2023-04-03T02:17:24;95699.59;;;0.72;67.13
75166;BME280;63747;48.042;10.088;2023-04-03T02:20:25;95709.88;;;0.61;67.14
75166;BME280;63747;48.042;10.088;2023-04-03T02:23:26;95707.94;;;0.64;67.12
75166;BME280;63747;48.042;10.088;2023-04-03T02:26:27;95705.09;;;0.67;67.01
75166;BME280;63747;48.042;10.088;2023-04-03T02:29:27;95708.22;;;0.60;67.15
75166;BME280;63747;48.042;10.088;2023-04-03T02:32:28;95694.66;;;0.67;67.37
75166;BME280;63747;48.042;10.088;2023-04-03T02:35:29;95704.59;;;0.62;67.30
75166;BME280;63747;48.042;10.088;2023-04-03T02:38:30;95706.03;;;0.66;67.44
75166;BME280;63747;48.042;10.088;2023-04-03T02:41:31;95701.38;;;0.71;67.30
75166;BME280;63747;48.042;10.088;2023-04-03T02:44:35;95701.91;;;0.76;67.07
75166;BME280;63747;48.042;10.088;2023-04-03T02:47:36;95700.97;;;0.77;67.22
75166;BME280;63747;48.042;10.088;2023-04-03T02:50:37;95703.34;;;0.81;67.27
75166;BME280;63747;48.042;10.088;2023-04-03T02:53:37;95703.28;;;0.82;67.29
75166;BME280;63747;48.042;10.088;2023-04-03T02:56:38;95694.50;;;0.83;67.33
75166;BME280;63747;48.042;10.088;2023-04-03T02:59:39;95693.75;;;0.81;67.31
75166;BME280;63747;48.042;10.088;2023-04-03T03:02:40;95690.41;;;0.79;67.28
75166;BME280;63747;48.042;10.088;2023-04-03T03:05:41;95701.56;;;0.68;67.33
75166;BME280;63747;48.042;10.088;2023-04-03T03:08:42;95691.13;;;0.68;67.44
75166;BME280;63747;48.042;10.088;2023-04-03T03:11:44;95703.97;;;0.71;67.53
75166;BME280;63747;48.042;10.088;2023-04-03T03:14:44;95701.97;;;0.75;67.52
75166;BME280;63747;48.042;10.088;2023-04-03T03:17:45;95696.56;;;0.78;67.13
75166;BME280;63747;48.042;10.088;2023-04-03T03:20:46;95686.25;;;0.76;67.19
75166;BME280;63747;48.042;10.088;2023-04-03T03:23:47;95693.88;;;0.79;67.26
75166;BME280;63747;48.042;10.088;2023-04-03T03:26:47;95685.16;;;0.66;67.21
75166;BME280;63747;48.042;10.088;2023-04-03T03:29:48;95688.63;;;0.67;67.07
75166;BME280;63747;48.042;10.088;2023-04-03T03:32:49;95693.72;;;0.56;67.27
75166;BME280;63747;48.042;10.088;2023-04-03T03:35:51;95688.88;;;0.37;67.53
75166;BME280;63747;48.042;10.088;2023-04-03T03:38:52;95693.97;;;0.38;67.90
75166;BME280;63747;48.042;10.088;2023-04-03T03:41:53;95692.53;;;0.47;67.74
75166;BME280;63747;48.042;10.088;2023-04-03T03:45:02;95689.34;;;0.56;67.72
75166;BME280;63747;48.042;10.088;2023-04-03T03:48:04;95697.56;;;0.50;67.44
75166;BME280;63747;48.042;10.088;2023-04-03T03:51:05;95693.69;;;0.43;67.81
75166;BME280;63747;48.042;10.088;2023-04-03T03:54:07;95699.63;;;0.45;67.90
75166;BME280;63747;48.042;10.088;2023-04-03T03:57:08;95701.47;;;0.30;67.91
75166;BME280;63747;48.042;10.088;2023-04-03T04:00:09;95692.66;;;0.18;68.36
75166;BME280;63747;48.042;10.088;2023-04-03T04:03:10;95700.13;;;0.10;68.81
75166;BME280;63747;48.042;10.088;2023-04-03T04:06:11;95698.44;;;0.09;68.85
75166;BME280;63747;48.042;10.088;2023-04-03T04:09:12;95691.13;;;0.02;68.93
75166;BME280;63747;48.042;10.088;2023-04-03T04:12:13;95700.34;;;-0.07;69.02
75166;BME280;63747;48.042;10.088;2023-04-03T04:15:13;95702.59;;;-0.15;69.28
75166;BME280;63747;48.042;10.088;2023-04-03T04:18:14;95697.03;;;-0.23;69.39
75166;BME280;63747;48.042;10.088;2023-04-03T04:21:15;95703.91;;;-0.22;69.61
75166;BME280;63747;48.042;10.088;2023-04-03T04:24:16;95706.63;;;-0.24;69.59
75166;BME280;63747;48.042;10.088;2023-04-03T04:27:16;95703.28;;;-0.26;69.62
75166;BME280;63747;48.042;10.088;2023-04-03T04:30:17;95699.91;;;-0.28;70.03
75166;BME280;63747;48.042;10.088;2023-04-03T04:33:18;95697.25;;;-0.26;69.57
75166;BME280;63747;48.042;10.088;2023-04-03T04:36:19;95702.25;;;-0.23;69.34
75166;BME280;63747;48.042;10.088;2023-04-03T04:39:20;95698.56;;;-0.07;69.13
75166;BME280;63747;48.042;10.088;2023-04-03T04:42:21;95698.00;;;0.03;68.50
75166;BME280;63747;48.042;10.088;2023-04-03T04:45:21;95690.75;;;0.08;68.37
75166;BME280;63747;48.042;10.088;2023-04-03T04:48:22;95695.69;;;0.25;68.36
75166;BME280;63747;48.042;10.088;2023-04-03T04:51:23;95694.13;;;0.22;68.07
75166;BME280;63747;48.042;10.088;2023-04-03T04:54:24;95702.28;;;0.31;68.14
75166;BME280;63747;48.042;10.088;2023-04-03T04:57:25;95694.19;;;0.35;67.98
75166;BME280;63747;48.042;10.088;2023-04-03T05:00:25;95695.59;;;0.27;67.98
75166;BME280;63747;48.042;10.088;2023-04-03T05:03:26;95690.38;;;0.27;67.99
75166;BME280;63747;48.042;10.088;2023-04-03T05:06:27;95689.97;;;0.33;67.82
75166;BME280;63747;48.042;10.088;2023-04-03T05:09:30;95690.63;;;0.36;67.58
75166;BME280;63747;48.042;10.088;2023-04-03T05:12:31;95688.03;;;0.36;67.37
75166;BME280;63747;48.042;10.088;2023-04-03T05:15:32;95689.81;;;0.36;67.60
75166;BME280;63747;48.042;10.088;2023-04-03T05:18:33;95697.41;;;0.39;67.44
75166;BME280;63747;48.042;10.088;2023-04-03T05:21:33;95701.56;;;0.29;67.69
75166;BME280;63747;48.042;10.088;2023-04-03T05:24:34;95699.91;;;0.40;67.57
75166;BME280;63747;48.042;10.088;2023-04-03T05:27:35;95699.84;;;0.42;67.50
75166;BME280;63747;48.042;10.088;2023-04-03T05:30:35;95708.28;;;0.45;67.43
75166;BME280;63747;48.042;10.088;2023-04-03T05:33:36;95709.34;;;0.43;67.45
75166;BME280;63747;48.042;10.088;2023-04-03T05:36:37;95708.81;;;0.50;67.26
75166;BME280;63747;48.042;10.088;2023-04-03T05:39:37;95703.41;;;0.54;67.27
75166;BME280;63747;48.042;10.088;2023-04-03T05:42:40;95711.88;;;0.57;67.09
75166;BME280;63747;48.042;10.088;2023-04-03T05:45:42;95704.22;;;0.54;67.36
75166;BME280;63747;48.042;10.088;2023-04-03T05:48:43;95715.50;;;0.55;67.20
75166;BME280;63747;48.042;10.088;2023-04-03T05:51:44;95713.31;;;0.48;67.22
75166;BME280;63747;48.042;10.088;2023-04-03T05:54:45;95717.66;;;0.48;67.08
75166;BME280;63747;48.042;10.088;2023-04-03T05:57:48;95723.53;;;0.51;67.19
75166;BME280;63747;48.042;10.088;2023-04-03T06:00:48;95719.38;;;0.49;67.33
75166;BME280;63747;48.042;10.088;2023-04-03T06:03:49;95718.03;;;0.56;67.09
75166;BME280;63747;48.042;10.088;2023-04-03T06:06:52;95724.69;;;0.60;66.88
75166;BME280;63747;48.042;10.088;2023-04-03T06:09:55;95724.25;;;0.54;67.20
75166;BME280;63747;48.042;10.088;2023-04-03T06:12:56;95720.09;;;0.51;67.35
75166;BME280;63747;48.042;10.088;2023-04-03T06:15:57;95723.25;;;0.56;67.28
75166;BME280;63747;48.042;10.088;2023-04-03T06:18:58;95726.19;;;0.64;67.45
75166;BME280;63747;48.042;10.088;2023-04-03T06:21:59;95718.06;;;0.69;67.38
75166;BME280;63747;48.042;10.088;2023-04-03T06:25:00;95720.16;;;0.76;67.14
75166;BME280;63747;48.042;10.088;2023-04-03T06:28:00;95719.97;;;0.79;67.15
75166;BME280;63747;48.042;10.088;2023-04-03T06:31:01;95716.31;;;0.82;67.05
75166;BME280;63747;48.042;10.088;2023-04-03T06:34:02;95725.19;;;0.92;67.08
75166;BME280;63747;48.042;10.088;2023-04-03T06:37:03;95731.25;;;0.93;66.76
75166;BME280;63747;48.042;10.088;2023-04-03T06:40:04;95726.88;;;0.93;66.88
75166;BME280;63747;48.042;10.088;2023-04-03T06:43:05;95726.97;;;0.92;66.66
75166;BME280;63747;48.042;10.088;2023-04-03T06:46:13;95734.09;;;0.90;66.71
75166;BME280;63747;48.042;10.088;2023-04-03T06:49:14;95741.16;;;0.88;66.69
75166;BME280;63747;48.042;10.088;2023-04-03T06:52:15;95743.16;;;0.84;66.67
75166;BME280;63747;48.042;10.088;2023-04-03T06:55:16;95740.25;;;0.89;66.80
75166;BME280;63747;48.042;10.088;2023-04-03T06:58:17;95747.66;;;0.95;66.62
75166;BME280;63747;48.042;10.088;2023-04-03T07:01:18;95740.56;;;0.97;66.39
75166;BME280;63747;48.042;10.088;2023-04-03T07:04:22;95743.19;;;0.97;66.30
75166;BME280;63747;48.042;10.088;2023-04-03T07:07:22;95747.25;;;1.01;66.32
75166;BME280;63747;48.042;10.088;2023-04-03T07:10:23;95747.78;;;1.06;66.23
75166;BME280;63747;48.042;10.088;2023-04-03T07:13:24;95748.19;;;1.00;66.32
75166;BME280;63747;48.042;10.088;2023-04-03T07:16:25;95751.34;;;1.05;66.51
75166;BME280;63747;48.042;10.088;2023-04-03T07:19:26;95756.75;;;1.15;66.41
75166;BME280;63747;48.042;10.088;2023-04-03T07:22:28;95760.13;;;1.17;66.14
75166;BME280;63747;48.042;10.088;2023-04-03T07:25:28;95759.28;;;1.16;65.98
75166;BME280;63747;48.042;10.088;2023-04-03T07:28:30;95758.84;;;1.22;66.17
75166;BME280;63747;48.042;10.088;2023-04-03T07:31:30;95769.22;;;1.24;66.27
75166;BME280;63747;48.042;10.088;2023-04-03T07:34:31;95761.28;;;1.25;66.10
75166;BME280;63747;48.042;10.088;2023-04-03T07:37:32;95768.72;;;1.31;66.21
75166;BME280;63747;48.042;10.088;2023-04-03T07:40:33;95763.66;;;1.28;66.22
75166;BME280;63747;48.042;10.088;2023-04-03T07:43:34;95757.53;;;1.29;66.33
75166;BME280;63747;48.042;10.088;2023-04-03T07:46:36;95761.59;;;1.33;66.04
75166;BME280;63747;48.042;10.088;2023-04-03T07:49:36;95767.03;;;1.30;66.09
75166;BME280;63747;48.042;10.088;2023-04-03T07:52:39;95767.25;;;1.40;66.21
75166;BME280;63747;48.042;10.088;2023-04-03T07:55:40;95769.53;;;1.32;65.81
75166;BME280;63747;48.042;10.088;2023-04-03T07:58:44;95778.31;;;1.31;65.85
75166;BME280;63747;48.042;10.088;2023-04-03T08:01:45;95770.91;;;1.25;65.97
75166;BME280;63747;48.042;10.088;2023-04-03T08:04:46;95772.66;;;1.24;66.18
75166;BME280;63747;48.042;10.088;2023-04-03T08:07:47;95784.69;;;1.40;65.97
75166;BME280;63747;48.042;10.088;2023-04-03T08:10:50;95787.00;;;1.44;65.85
75166;BME280;63747;48.042;10.088;2023-04-03T08:13:51;95787.00;;;1.44;65.93
75166;BME280;63747;48.042;10.088;2023-04-03T08:16:52;95780.63;;;1.48;65.82
75166;BME280;63747;48.042;10.088;2023-04-03T08:19:52;95790.53;;;1.56;65.85
75166;BME280;63747;48.042;10.088;2023-04-03T08:22:53;95791.78;;;1.63;65.61
75166;BME280;63747;48.042;10.088;2023-04-03T08:25:54;95789.19;;;1.76;65.35
75166;BME280;63747;48.042;10.088;2023-04-03T08:28:55;95783.22;;;1.86;65.31
75166;BME280;63747;48.042;10.088;2023-04-03T08:31:55;95786.25;;;1.93;64.76
75166;BME280;63747;48.042;10.088;2023-04-03T08:34:57;95788.44;;;1.99;64.65
75166;BME280;63747;48.042;10.088;2023-04-03T08:37:57;95781.63;;;1.97;64.95
75166;BME280;63747;48.042;10.088;2023-04-03T08:41:11;95780.19;;;2.05;64.74
75166;BME280;63747;48.042;10.088;2023-04-03T08:44:25;95790.94;;;2.13;64.52
75166;BME280;63747;48.042;10.088;2023-04-03T08:51:08;95784.91;;;2.37;63.92
75166;BME280;63747;48.042;10.088;2023-04-03T08:54:24;95783.16;;;2.61;63.17
75166;BME280;63747;48.042;10.088;2023-04-03T08:57:32;95785.84;;;2.73;63.22
75166;BME280;63747;48.042;10.088;2023-04-03T09:01:00;95794.94;;;2.80;62.74
75166;BME280;63747;48.042;10.088;2023-04-03T09:04:12;95789.97;;;2.88;62.54
75166;BME280;63747;48.042;10.088;2023-04-03T09:07:20;95790.34;;;2.94;61.96
75166;BME280;63747;48.042;10.088;2023-04-03T09:10:27;95797.56;;;2.91;61.68
75166;BME280;63747;48.042;10.088;2023-04-03T09:13:59;95799.16;;;2.93;61.68
75166;BME280;63747;48.042;10.088;2023-04-03T09:17:13;95796.75;;;2.90;60.93
75166;BME280;63747;48.042;10.088;2023-04-03T09:20:26;95799.38;;;2.90;60.90
75166;BME280;63747;48.042;10.088;2023-04-03T09:23:50;95789.66;;;3.04;61.83
75166;BME280;63747;48.042;10.088;2023-04-03T09:26:56;95787.75;;;3.30;61.59
75166;BME280;63747;48.042;10.088;2023-04-03T09:29:59;95789.66;;;3.39;60.93
75166;BME280;63747;48.042;10.088;2023-04-03T09:33:00;95789.91;;;3.36;60.91
75166;BME280;63747;48.042;10.088;2023-04-03T09:36:01;95789.97;;;3.47;60.76
75166;BME280;63747;48.042;10.088;2023-04-03T09:39:20;95791.44;;;3.62;60.06
75166;BME280;63747;48.042;10.088;2023-04-03T09:42:24;95779.97;;;3.63;60.04
75166;BME280;63747;48.042;10.088;2023-04-03T09:45:35;95786.66;;;3.56;59.75
75166;BME280;63747;48.042;10.088;2023-04-03T09:48:36;95786.19;;;3.62;59.56
75166;BME280;63747;48.042;10.088;2023-04-03T09:51:37;95792.63;;;3.69;60.20
75166;BME280;63747;48.042;10.088;2023-04-03T09:54:38;95778.94;;;3.88;59.91
75166;BME280;63747;48.042;10.088;2023-04-03T09:57:40;95783.72;;;3.83;59.06
75166;BME280;63747;48.042;10.088;2023-04-03T10:00:41;95792.41;;;3.84;58.63
75166;BME280;63747;48.042;10.088;2023-04-03T10:03:42;95793.03;;;3.87;59.58
75166;BME280;63747;48.042;10.088;2023-04-03T10:06:48;95785.72;;;3.91;58.37
75166;BME280;63747;48.042;10.088;2023-04-03T10:09:55;95779.31;;;3.95;58.71
75166;BME280;63747;48.042;10.088;2023-04-03T10:13:05;95792.41;;;3.84;58.98
75166;BME280;63747;48.042;10.088;2023-04-03T10:16:09;95790.94;;;3.57;59.16
75166;BME280;63747;48.042;10.088;2023-04-03T10:19:39;95802.88;;;3.37;59.28
75166;BME280;63747;48.042;10.088;2023-04-03T10:23:00;95800.00;;;3.29;59.42
75166;BME280;63747;48.042;10.088;2023-04-03T10:40:24;95785.16;;;4.10;57.33
75166;BME280;63747;48.042;10.088;2023-04-03T10:50:57;95781.00;;;4.73;54.89
75166;BME280;63747;48.042;10.088;2023-04-03T10:54:05;95779.53;;;4.37;55.33
75166;BME280;63747;48.042;10.088;2023-04-03T10:57:10;95769.84;;;4.48;56.54
75166;BME280;63747;48.042;10.088;2023-04-03T11:00:18;95761.25;;;4.46;56.80
75166;BME280;63747;48.042;10.088;2023-04-03T11:03:26;95772.44;;;4.59;56.16
75166;BME280;63747;48.042;10.088;2023-04-03T11:06:37;95764.09;;;4.54;55.76
75166;BME280;63747;48.042;10.088;2023-04-03T11:09:42;95766.28;;;4.49;56.00
75166;BME280;63747;48.042;10.088;2023-04-03T11:13:11;95767.09;;;4.50;55.62
75166;BME280;63747;48.042;10.088;2023-04-03T11:16:26;95760.97;;;4.60;56.02
75166;BME280;63747;48.042;10.088;2023-04-03T11:19:45;95762.38;;;4.76;55.28
75166;BME280;63747;48.042;10.088;2023-04-03T11:22:54;95760.78;;;4.84;55.26
75166;BME280;63747;48.042;10.088;2023-04-03T11:26:14;95762.81;;;4.81;54.76
75166;BME280;63747;48.042;10.088;2023-04-03T11:29:20;95761.63;;;4.85;54.10
75166;BME280;63747;48.042;10.088;2023-04-03T11:32:34;95761.75;;;4.83;53.32
75166;BME280;63747;48.042;10.088;2023-04-03T11:35:43;95750.97;;;4.98;54.03
75166;BME280;63747;48.042;10.088;2023-04-03T11:38:46;95746.38;;;5.11;53.49
75166;BME280;63747;48.042;10.088;2023-04-03T11:41:47;95738.34;;;5.33;53.63
75166;BME280;63747;48.042;10.088;2023-04-03T11:44:48;95756.84;;;5.64;54.03
75166;BME280;63747;48.042;10.088;2023-04-03T11:47:56;95747.72;;;4.94;52.84
75166;BME280;63747;48.042;10.088;2023-04-03T11:50:59;95750.00;;;4.99;54.02
75166;BME280;63747;48.042;10.088;2023-04-03T11:54:45;95745.34;;;5.23;54.13
75166;BME280;63747;48.042;10.088;2023-04-03T12:01:00;95745.91;;;5.27;53.25
75166;BME280;63747;48.042;10.088;2023-04-03T12:04:07;95735.91;;;5.83;52.80
75166;BME280;63747;48.042;10.088;2023-04-03T12:07:16;95733.41;;;6.12;52.73
75166;BME280;63747;48.042;10.088;2023-04-03T12:10:18;95741.00;;;6.06;51.57
75166;BME280;63747;48.042;10.088;2023-04-03T12:13:19;95742.47;;;6.29;52.56
75166;BME280;63747;48.042;10.088;2023-04-03T12:19:37;95728.16;;;6.12;51.21
75166;BME280;63747;48.042;10.088;2023-04-03T12:23:23;95730.72;;;6.03;50.29
75166;BME280;63747;48.042;10.088;2023-04-03T12:26:26;95727.25;;;5.71;50.96
75166;BME280;63747;48.042;10.088;2023-04-03T12:29:46;95727.09;;;5.94;51.97
75166;BME280;63747;48.042;10.088;2023-04-03T12:33:16;95730.63;;;6.04;51.60
75166;BME280;63747;48.042;10.088;2023-04-03T12:36:30;95728.09;;;6.03;49.63
75166;BME280;63747;48.042;10.088;2023-04-03T12:40:07;95726.28;;;5.73;49.65
75166;BME280;63747;48.042;10.088;2023-04-03T12:43:29;95730.41;;;5.65;51.88
75166;BME280;63747;48.042;10.088;2023-04-03T12:46:44;95717.91;;;5.58;50.98
75166;BME280;63747;48.042;10.088;2023-04-03T12:49:46;95723.03;;;5.59;52.32
75166;BME280;63747;48.042;10.088;2023-04-03T12:53:19;95729.81;;;5.62;52.33
75166;BME280;63747;48.042;10.088;2023-04-03T12:56:23;95727.19;;;5.62;53.19
75166;BME280;63747;48.042;10.088;2023-04-03T12:59:26;95722.56;;;5.54;52.84
75166;BME280;63747;48.042;10.088;2023-04-03T13:02:30;95719.44;;;5.39;53.86
75166;BME280;63747;48.042;10.088;2023-04-03T13:05:32;95722.34;;;5.36;53.41
75166;BME280;63747;48.042;10.088;2023-04-03T13:08:33;95724.19;;;5.46;53.99
75166;BME280;63747;48.042;10.088;2023-04-03T13:11:37;95728.34;;;5.48;54.02
75166;BME280;63747;48.042;10.088;2023-04-03T13:14:39;95722.00;;;5.71;53.50
75166;BME280;63747;48.042;10.088;2023-04-03T13:17:42;95714.53;;;5.77;52.31
75166;BME280;63747;48.042;10.088;2023-04-03T13:20:43;95717.97;;;5.47;50.85
75166;BME280;63747;48.042;10.088;2023-04-03T13:23:46;95729.63;;;5.54;52.82
75166;BME280;63747;48.042;10.088;2023-04-03T13:26:51;95715.72;;;5.63;52.80
75166;BME280;63747;48.042;10.088;2023-04-03T13:29:54;95716.16;;;5.47;52.62
75166;BME280;63747;48.042;10.088;2023-04-03T13:33:00;95705.94;;;5.44;53.08
75166;BME280;63747;48.042;10.088;2023-04-03T13:36:08;95713.03;;;5.32;53.23
75166;BME280;63747;48.042;10.088;2023-04-03T13:42:22;95715.72;;;5.42;53.21
75166;BME280;63747;48.042;10.088;2023-04-03T13:45:25;95716.88;;;5.49;52.62
75166;BME280;63747;48.042;10.088;2023-04-03T13:48:38;95711.19;;;5.44;52.48
75166;BME280;63747;48.042;10.088;2023-04-03T13:51:40;95710.38;;;5.23;53.25
75166;BME280;63747;48.042;10.088;2023-04-03T13:54:40;95714.75;;;5.01;53.79
75166;BME280;63747;48.042;10.088;2023-04-03T13:58:19;95713.53;;;4.84;53.62
75166;BME280;63747;48.042;10.088;2023-04-03T14:01:23;95723.78;;;4.55;53.98
75166;BME280;63747;48.042;10.088;2023-04-03T14:04:27;95709.72;;;4.45;55.26
75166;BME280;63747;48.042;10.088;2023-04-03T14:07:30;95715.16;;;4.53;55.97
75166;BME280;63747;48.042;10.088;2023-04-03T14:10:33;95712.25;;;4.68;55.80
75166;BME280;63747;48.042;10.088;2023-04-03T14:13:34;95710.69;;;4.76;55.27
75166;BME280;63747;48.042;10.088;2023-04-03T14:16:38;95701.06;;;4.66;53.64
75166;BME280;63747;48.042;10.088;2023-04-03T14:19:40;95700.25;;;4.86;54.27
75166;BME280;63747;48.042;10.088;2023-04-03T14:22:41;95700.09;;;4.99;54.73
75166;BME280;63747;48.042;10.088;2023-04-03T14:25:42;95700.09;;;5.20;53.54
75166;BME280;63747;48.042;10.088;2023-04-03T14:28:46;95687.59;;;5.33;53.13
75166;BME280;63747;48.042;10.088;2023-04-03T14:31:48;95683.53;;;5.50;52.66
75166;BME280;63747;48.042;10.088;2023-04-03T14:34:50;95693.13;;;5.60;52.59
75166;BME280;63747;48.042;10.088;2023-04-03T14:37:51;95680.59;;;5.74;54.11
75166;BME280;63747;48.042;10.088;2023-04-03T14:40:53;95682.69;;;5.80;53.26
75166;BME280;63747;48.042;10.088;2023-04-03T14:43:54;95689.47;;;5.82;53.75
75166;BME280;63747;48.042;10.088;2023-04-03T14:46:54;95677.66;;;5.67;53.29
75166;BME280;63747;48.042;10.088;2023-04-03T14:49:56;95680.50;;;5.54;54.37
75166;BME280;63747;48.042;10.088;2023-04-03T14:52:58;95676.72;;;5.47;53.15
75166;BME280;63747;48.042;10.088;2023-04-03T14:55:59;95687.84;;;5.30;52.69
75166;BME280;63747;48.042;10.088;2023-04-03T14:59:01;95684.31;;;5.20;51.93
75166;BME280;63747;48.042;10.088;2023-04-03T15:02:02;95680.59;;;5.22;53.64
75166;BME280;63747;48.042;10.088;2023-04-03T15:05:09;95677.53;;;5.38;52.91
75166;BME280;63747;48.042;10.088;2023-04-03T15:08:24;95683.59;;;5.38;52.45
75166;BME280;63747;48.042;10.088;2023-04-03T15:11:25;95683.47;;;5.40;53.17
75166;BME280;63747;48.042;10.088;2023-04-03T15:14:27;95690.47;;;5.51;52.53
75166;BME280;63747;48.042;10.088;2023-04-03T15:17:27;95682.00;;;5.47;52.68
75166;BME280;63747;48.042;10.088;2023-04-03T15:20:29;95679.97;;;5.30;52.41
75166;BME280;63747;48.042;10.088;2023-04-03T15:23:31;95680.34;;;5.25;52.10
75166;BME280;63747;48.042;10.088;2023-04-03T15:26:32;95689.25;;;5.34;52.04
75166;BME280;63747;48.042;10.088;2023-04-03T15:29:33;95679.97;;;5.30;52.03
75166;BME280;63747;48.042;10.088;2023-04-03T15:32:34;95684.78;;;5.25;52.15
75166;BME280;63747;48.042;10.088;2023-04-03T15:35:35;95679.44;;;5.15;52.08
75166;BME280;63747;48.042;10.088;2023-04-03T15:38:36;95685.66;;;4.93;52.33
75166;BME280;63747;48.042;10.088;2023-04-03T15:41:38;95681.16;;;4.84;52.89
75166;BME280;63747;48.042;10.088;2023-04-03T15:44:38;95687.19;;;4.75;52.99
75166;BME280;63747;48.042;10.088;2023-04-03T15:47:39;95698.19;;;4.69;53.73
75166;BME280;63747;48.042;10.088;2023-04-03T15:50:40;95698.28;;;4.67;52.95
75166;BME280;63747;48.042;10.088;2023-04-03T15:53:41;95694.34;;;4.73;53.61
75166;BME280;63747;48.042;10.088;2023-04-03T15:56:42;95696.28;;;4.71;53.28
75166;BME280;63747;48.042;10.088;2023-04-03T15:59:43;95692.34;;;4.65;53.27
75166;BME280;63747;48.042;10.088;2023-04-03T16:02:46;95696.91;;;4.52;53.30
75166;BME280;63747;48.042;10.088;2023-04-03T16:05:47;95695.63;;;4.46;53.29
75166;BME280;63747;48.042;10.088;2023-04-03T16:08:49;95683.47;;;4.34;52.60
75166;BME280;63747;48.042;10.088;2023-04-03T16:11:49;95686.84;;;4.25;53.29
75166;BME280;63747;48.042;10.088;2023-04-03T16:14:50;95685.69;;;4.18;53.02
75166;BME280;63747;48.042;10.088;2023-04-03T16:17:53;95689.63;;;4.12;53.11
75166;BME280;63747;48.042;10.088;2023-04-03T16:20:54;95693.06;;;4.13;52.97
75166;BME280;63747;48.042;10.088;2023-04-03T16:23:57;95689.47;;;4.25;52.41
75166;BME280;63747;48.042;10.088;2023-04-03T16:26:58;95688.50;;;4.37;51.98
75166;BME280;63747;48.042;10.088;2023-04-03T16:29:59;95690.28;;;4.48;52.22
75166;BME280;63747;48.042;10.088;2023-04-03T16:33:01;95689.66;;;4.55;51.49
75166;BME280;63747;48.042;10.088;2023-04-03T16:36:03;95692.16;;;4.46;51.26
75166;BME280;63747;48.042;10.088;2023-04-03T16:39:04;95687.66;;;4.37;51.29
75166;BME280;63747;48.042;10.088;2023-04-03T16:42:05;95690.19;;;4.27;51.87
75166;BME280;63747;48.042;10.088;2023-04-03T16:45:06;95687.81;;;4.24;51.54
75166;BME280;63747;48.042;10.088;2023-04-03T16:48:07;95678.16;;;4.13;51.81
75166;BME280;63747;48.042;10.088;2023-04-03T16:51:12;95688.81;;;4.00;51.74